createdAt,value
2023-02-11T00:01:49.768Z,102183.00
2023-02-11T00:03:51.754Z,102176.72
2023-02-11T00:06:00.713Z,102165.31
2023-02-11T00:08:02.386Z,102151.38
2023-02-11T00:10:04.868Z,102130.34
2023-02-11T00:12:06.428Z,102124.25
2023-02-11T00:14:08.061Z,102124.13
2023-02-11T00:16:15.918Z,102124.13
2023-02-11T00:18:17.772Z,102121.63
2023-02-11T00:20:19.377Z,102116.56
2023-02-11T00:22:20.818Z,102117.91
2023-02-11T00:24:22.220Z,102105.06
2023-02-11T00:26:32.596Z,102059.31
2023-02-11T00:28:34.129Z,102105.47
2023-02-11T00:30:36.188Z,102105.38
2023-02-11T00:32:37.809Z,102105.97
2023-02-11T00:34:39.344Z,102103.97
2023-02-11T00:36:41.311Z,102108.78
2023-02-11T00:38:44.506Z,102105.88
2023-02-11T00:40:45.936Z,102088.72
2023-02-11T00:42:47.532Z,102077.31
2023-02-11T00:44:49.079Z,102078.09
2023-02-11T00:46:50.516Z,102077.09
2023-02-11T00:48:52.105Z,102034.06
2023-02-11T00:50:53.637Z,102063.25
2023-02-11T00:52:55.082Z,102060.59
2023-02-11T00:54:56.705Z,102057.66
2023-02-11T00:56:58.252Z,102059.00
2023-02-11T00:58:59.671Z,102052.28
2023-02-11T01:01:01.296Z,102044.59
2023-02-11T01:03:03.014Z,102040.88
2023-02-11T01:05:04.909Z,102054.63
2023-02-11T01:07:06.522Z,102055.66
2023-02-11T01:09:08.053Z,102071.03
2023-02-11T01:11:16.734Z,102064.09
2023-02-11T01:13:18.358Z,102060.59
2023-02-11T01:15:20.774Z,102057.63
2023-02-11T01:17:22.207Z,102050.03
2023-02-11T01:19:23.768Z,102039.34
2023-02-11T01:21:25.681Z,102027.03
2023-02-11T01:23:27.306Z,102030.75
2023-02-11T01:25:28.900Z,102018.72
2023-02-11T01:27:33.096Z,102009.78
2023-02-11T01:29:34.566Z,102002.03
2023-02-11T01:31:36.195Z,101962.22
2023-02-11T01:33:37.699Z,101979.56
2023-02-11T01:35:40.518Z,101959.34
2023-02-11T01:37:42.045Z,101952.28
2023-02-11T01:39:43.468Z,101934.84
2023-02-11T01:41:44.998Z,101932.97
2023-02-11T01:43:49.953Z,101914.03
2023-02-11T01:46:03.940Z,101915.06
2023-02-11T01:48:05.470Z,101923.72
2023-02-11T01:50:06.932Z,101938.63
2023-02-11T01:52:29.561Z,101926.03
2023-02-11T01:54:36.713Z,101916.22
2023-02-11T01:56:43.702Z,101911.88
2023-02-11T01:58:48.737Z,101921.75
2023-02-11T02:00:50.658Z,101917.63
2023-02-11T02:03:05.238Z,101919.13
2023-02-11T02:05:21.616Z,101914.69
2023-02-11T02:07:36.932Z,101901.94
2023-02-11T02:09:44.225Z,101916.78
2023-02-11T02:11:45.658Z,101905.41
2023-02-11T02:13:47.157Z,101895.91
2023-02-11T02:15:57.032Z,101889.03
2023-02-11T02:18:49.779Z,101876.69
2023-02-11T02:23:54.535Z,101880.56
2023-02-11T02:26:14.219Z,101883.56
2023-02-11T02:28:34.503Z,101870.41
2023-02-11T02:31:20.696Z,101866.44
2023-02-11T02:33:33.295Z,101862.38
2023-02-11T02:35:53.131Z,101858.00
2023-02-11T02:38:02.206Z,101857.00
2023-02-11T02:40:12.297Z,101841.66
2023-02-11T02:42:14.897Z,101859.25
2023-02-11T02:44:16.776Z,101853.69
2023-02-11T02:46:21.861Z,101854.75
2023-02-11T02:48:33.792Z,101866.44
2023-02-11T02:50:37.370Z,101868.09
2023-02-11T02:52:44.358Z,101843.09
2023-02-11T02:55:21.537Z,101837.72
2023-02-11T02:57:54.064Z,101833.56
2023-02-11T02:59:55.450Z,101832.69
2023-02-11T03:02:10.799Z,101807.41
2023-02-11T03:04:22.758Z,101811.72
2023-02-11T03:06:32.793Z,101810.19
2023-02-11T03:08:44.353Z,101792.28
2023-02-11T03:10:49.957Z,101788.22
2023-02-11T03:12:53.534Z,101789.59
2023-02-11T03:14:54.873Z,101793.06
2023-02-11T03:17:00.898Z,101789.41
2023-02-11T03:19:17.158Z,101776.56
2023-02-11T03:21:20.622Z,101775.03
2023-02-11T03:23:44.844Z,101761.16
2023-02-11T03:25:52.882Z,101757.09
2023-02-11T03:28:10.145Z,101765.84
2023-02-11T03:30:18.588Z,101748.53
2023-02-11T03:32:32.739Z,101747.81
2023-02-11T03:34:45.552Z,101757.59
2023-02-11T03:36:56.969Z,101748.84
2023-02-11T03:39:02.684Z,101756.53
2023-02-11T03:41:07.845Z,101744.41
2023-02-11T03:43:19.199Z,101730.22
2023-02-11T03:45:23.556Z,101722.13
2023-02-11T03:47:27.864Z,101733.63
2023-02-11T03:49:32.155Z,101736.47
2023-02-11T03:51:35.436Z,101732.06
2023-02-11T03:53:41.082Z,101717.41
2023-02-11T03:55:44.109Z,101751.13
2023-02-11T03:57:46.840Z,101754.53
2023-02-11T03:59:56.912Z,101747.34
2023-02-11T04:01:58.583Z,101744.94
2023-02-11T04:04:00.196Z,101738.53
2023-02-11T04:06:01.992Z,101738.81
2023-02-11T04:08:03.777Z,101734.38
2023-02-11T04:10:05.848Z,101728.28
2023-02-11T04:12:07.928Z,101729.91
2023-02-11T04:14:09.582Z,101726.03
2023-02-11T04:16:11.224Z,101711.28
2023-02-11T04:18:12.642Z,101710.75
2023-02-11T04:20:14.269Z,101703.16
2023-02-11T04:22:15.854Z,101693.44
2023-02-11T04:24:17.413Z,101706.84
2023-02-11T04:26:18.837Z,101696.06
2023-02-11T04:28:20.505Z,101681.28
2023-02-11T04:30:22.129Z,101679.91
2023-02-11T04:32:23.565Z,101662.97
2023-02-11T04:34:25.177Z,101663.94
2023-02-11T04:36:26.830Z,101667.06
2023-02-11T04:38:28.246Z,101669.50
2023-02-11T04:40:29.780Z,101676.56
2023-02-11T04:42:31.437Z,101665.81
2023-02-11T04:44:32.961Z,101659.91
2023-02-11T04:46:34.367Z,101664.97
2023-02-11T04:48:35.909Z,101662.50
2023-02-11T04:50:37.315Z,101649.50
2023-02-11T04:52:38.751Z,101640.81
2023-02-11T04:54:40.380Z,101644.63
2023-02-11T04:56:41.828Z,101632.91
2023-02-11T04:58:43.478Z,101628.53
2023-02-11T05:00:45.018Z,101631.78
2023-02-11T05:02:46.488Z,101629.44
2023-02-11T05:04:48.177Z,101638.88
2023-02-11T05:06:49.746Z,101630.00
2023-02-11T05:08:51.201Z,101649.03
2023-02-11T05:10:52.773Z,101637.00
2023-02-11T05:12:55.961Z,101646.19
2023-02-11T05:14:57.569Z,101641.81
2023-02-11T05:16:59.484Z,101625.41
2023-02-11T05:19:00.999Z,101578.09
2023-02-11T05:21:06.525Z,101623.69
2023-02-11T05:23:08.225Z,101619.53
2023-02-11T05:25:09.832Z,101602.72
2023-02-11T05:27:11.247Z,101607.75
2023-02-11T05:29:12.800Z,101611.47
2023-02-11T05:31:14.500Z,101606.34
2023-02-11T05:33:15.958Z,101600.16
2023-02-11T05:35:18.145Z,101598.41
2023-02-11T05:37:19.736Z,101571.06
2023-02-11T05:39:21.308Z,101574.97
2023-02-11T05:41:22.999Z,101588.66
2023-02-11T05:43:24.808Z,101582.81
2023-02-11T05:45:26.381Z,101576.50
2023-02-11T05:47:27.908Z,101561.94
2023-02-11T05:49:29.396Z,101585.19
2023-02-11T05:51:30.922Z,101534.44
2023-02-11T05:53:32.634Z,101574.66
2023-02-11T05:55:34.791Z,101574.59
2023-02-11T05:57:36.248Z,101569.72
2023-02-11T05:59:38.025Z,101576.38
2023-02-11T06:01:39.572Z,101566.38
2023-02-11T06:03:41.115Z,101568.72
2023-02-11T06:05:43.997Z,101572.06
2023-02-11T06:07:45.525Z,101565.13
2023-02-11T06:09:46.922Z,101566.03
2023-02-11T06:11:48.571Z,101562.78
2023-02-11T06:13:51.142Z,101565.19
2023-02-11T06:15:57.955Z,101561.34
2023-02-11T06:17:59.466Z,101564.13
2023-02-11T06:20:01.112Z,101571.88
2023-02-11T06:22:02.530Z,101562.22
2023-02-11T06:24:04.280Z,101554.22
2023-02-11T06:26:07.740Z,101554.66
2023-02-11T06:28:09.208Z,101554.53
2023-02-11T06:30:11.326Z,101552.81
2023-02-11T06:32:33.247Z,101519.31
2023-02-11T06:34:34.702Z,101548.22
2023-02-11T06:36:38.436Z,101547.53
2023-02-11T06:38:39.951Z,101537.06
2023-02-11T06:40:41.354Z,101538.03
2023-02-11T06:42:43.533Z,101525.41
2023-02-11T06:44:44.946Z,101550.03
2023-02-11T06:46:46.564Z,101545.72
2023-02-11T06:48:48.113Z,101547.44
2023-02-11T06:50:49.614Z,101546.56
2023-02-11T06:52:51.035Z,101549.00
2023-02-11T06:54:52.513Z,101540.28
2023-02-11T06:56:54.016Z,101534.44
2023-02-11T06:58:56.264Z,101536.03
2023-02-11T07:00:58.319Z,101543.75
2023-02-11T07:02:59.756Z,101495.66
2023-02-11T07:05:01.169Z,101533.50
2023-02-11T07:07:02.583Z,101531.59
2023-02-11T07:09:05.233Z,101520.16
2023-02-11T07:11:16.215Z,101517.75
2023-02-11T07:13:17.671Z,101532.88
2023-02-11T07:15:19.280Z,101528.19
2023-02-11T07:17:20.687Z,101529.84
2023-02-11T07:19:22.429Z,101522.78
2023-02-11T07:21:24.220Z,101516.38
2023-02-11T07:23:25.868Z,101514.63
2023-02-11T07:25:27.399Z,101511.03
2023-02-11T07:27:28.822Z,101522.09
2023-02-11T07:29:30.258Z,101512.72
2023-02-11T07:31:32.297Z,101527.47
2023-02-11T07:33:33.786Z,101523.81
2023-02-11T07:35:35.224Z,101537.03
2023-02-11T07:37:36.700Z,101529.22
2023-02-11T07:39:38.161Z,101514.50
2023-02-11T07:41:39.606Z,101515.53
2023-02-11T07:43:41.678Z,101521.75
2023-02-11T07:45:43.119Z,101527.69
2023-02-11T07:47:44.543Z,101524.38
2023-02-11T07:49:46.117Z,101528.00
2023-02-11T07:51:47.545Z,101526.84
2023-02-11T07:53:49.190Z,101526.47
2023-02-11T07:55:50.940Z,101495.75
2023-02-11T07:57:52.522Z,101514.69
2023-02-11T07:59:53.927Z,101506.16
2023-02-11T08:01:55.962Z,101504.88
2023-02-11T08:03:59.282Z,101511.56
2023-02-11T08:06:09.510Z,101494.41
2023-02-11T08:08:11.257Z,101483.84
2023-02-11T08:10:12.831Z,101483.09
2023-02-11T08:12:14.231Z,101477.44
2023-02-11T08:14:15.970Z,101468.06
2023-02-11T08:16:36.056Z,101490.59
2023-02-11T08:18:37.569Z,101479.66
2023-02-11T08:20:39.149Z,101494.84
2023-02-11T08:22:40.909Z,101474.53
2023-02-11T08:24:42.484Z,101463.00
2023-02-11T08:26:44.138Z,101455.06
2023-02-11T08:28:47.491Z,101451.91
2023-02-11T08:30:49.222Z,101454.47
2023-02-11T08:32:51.432Z,101454.91
2023-02-11T08:34:53.476Z,101457.59
2023-02-11T08:36:54.915Z,101456.38
2023-02-11T08:39:12.163Z,101453.09
2023-02-11T08:41:19.296Z,101449.44
2023-02-11T08:43:20.743Z,101433.47
2023-02-11T08:45:22.242Z,101431.59
2023-02-11T08:47:23.820Z,101421.22
2023-02-11T08:49:25.249Z,101411.69
2023-02-11T08:51:28.473Z,101407.66
2023-02-11T08:53:30.011Z,101400.44
2023-02-11T08:55:31.551Z,101389.81
2023-02-11T08:57:33.161Z,101394.28
2023-02-11T08:59:34.624Z,101393.66
2023-02-11T09:01:36.358Z,101391.88
2023-02-11T09:03:38.017Z,101377.19
2023-02-11T09:05:43.496Z,101394.81
2023-02-11T09:07:45.018Z,101397.41
2023-02-11T09:09:46.780Z,101398.00
2023-02-11T09:11:48.457Z,101377.25
2023-02-11T09:13:52.603Z,101400.88
2023-02-11T09:15:55.676Z,101391.53
2023-02-11T09:17:57.528Z,101397.94
2023-02-11T09:19:59.074Z,101414.44
2023-02-11T09:22:01.783Z,101425.75
2023-02-11T09:24:03.400Z,101426.66
2023-02-11T09:26:09.614Z,101428.28
2023-02-11T09:28:11.415Z,101441.00
2023-02-11T09:30:13.345Z,101450.69
2023-02-11T09:32:14.953Z,101441.06
2023-02-11T09:34:16.749Z,101468.56
2023-02-11T09:36:24.547Z,101470.53
2023-02-11T09:38:26.204Z,101472.69
2023-02-11T09:40:28.201Z,101472.94
2023-02-11T09:43:02.327Z,101478.97
2023-02-11T09:45:13.488Z,101448.97
2023-02-11T09:47:32.261Z,101451.00
2023-02-11T09:49:50.216Z,101430.03
2023-02-11T09:52:05.024Z,101420.50
2023-02-11T09:54:30.096Z,101436.47
2023-02-11T09:56:31.522Z,101435.53
2023-02-11T09:58:38.500Z,101395.66
2023-02-11T10:00:46.978Z,101406.44
2023-02-11T10:03:20.366Z,101391.03
2023-02-11T10:05:50.034Z,101393.59
2023-02-11T10:08:08.712Z,101380.66
2023-02-11T10:10:25.080Z,101372.28
2023-02-11T10:12:57.546Z,101376.16
2023-02-11T10:15:06.352Z,101356.47
2023-02-11T10:17:22.660Z,101342.94
2023-02-11T10:20:06.129Z,101345.50
2023-02-11T10:22:18.564Z,101337.91
2023-02-11T10:24:20.513Z,101308.22
2023-02-11T10:26:22.863Z,101301.63
2023-02-11T10:28:30.951Z,101298.66
2023-02-11T10:30:37.475Z,101310.66
2023-02-11T10:33:01.235Z,101298.16
2023-02-11T10:35:10.274Z,101290.38
2023-02-11T10:37:13.865Z,101286.94
2023-02-11T10:39:22.292Z,101275.59
2023-02-11T10:41:30.903Z,101259.72
2023-02-11T10:43:33.307Z,101259.94
2023-02-11T10:45:39.948Z,101277.22
2023-02-11T10:47:41.865Z,101299.53
2023-02-11T10:49:46.045Z,101299.88
2023-02-11T10:51:48.199Z,101317.53
2023-02-11T10:54:04.453Z,101316.44
2023-02-11T10:56:08.123Z,101309.38
2023-02-11T10:58:21.706Z,101329.69
2023-02-11T11:00:38.249Z,101334.59
2023-02-11T11:02:39.784Z,101340.84
2023-02-11T11:04:43.749Z,101337.22
2023-02-11T11:06:45.238Z,101336.13
2023-02-11T11:08:51.375Z,101332.47
2023-02-11T11:11:08.973Z,101330.53
2023-02-11T11:13:33.326Z,101333.59
2023-02-11T11:15:34.695Z,101345.34
2023-02-11T11:17:37.569Z,101338.31
2023-02-11T11:19:39.017Z,101335.84
2023-02-11T11:21:49.552Z,101347.69
2023-02-11T11:23:57.162Z,101338.41
2023-02-11T11:26:04.028Z,101349.38
2023-02-11T11:28:05.519Z,101348.53
2023-02-11T11:30:16.530Z,101329.28
2023-02-11T11:32:23.535Z,101302.38
2023-02-11T11:34:36.577Z,101304.56
2023-02-11T11:36:40.216Z,101309.50
2023-02-11T11:38:46.629Z,101296.38
2023-02-11T11:41:22.954Z,101309.66
2023-02-11T11:43:24.471Z,101305.34
2023-02-11T11:45:27.341Z,101307.97
2023-02-11T11:47:50.302Z,101294.78
2023-02-11T11:50:21.202Z,101306.34
2023-02-11T11:52:41.210Z,101288.84
2023-02-11T11:54:47.698Z,101283.41
2023-02-11T11:57:10.576Z,101292.97
2023-02-11T11:59:13.694Z,101282.41
2023-02-11T12:01:41.307Z,101281.13
2023-02-11T12:04:01.752Z,101285.28
2023-02-11T12:06:12.274Z,101298.44
2023-02-11T12:08:19.431Z,101294.50
2023-02-11T12:10:46.871Z,101280.56
2023-02-11T12:13:07.965Z,101265.75
2023-02-11T12:15:32.864Z,101283.03
2023-02-11T12:18:01.184Z,101278.66
2023-02-11T12:20:16.950Z,101284.75
2023-02-11T12:22:48.810Z,101287.25
2023-02-11T12:25:24.980Z,101283.13
2023-02-11T12:27:29.344Z,101282.28
2023-02-11T12:29:41.587Z,101274.13
2023-02-11T12:32:00.655Z,101289.69
2023-02-11T12:34:28.858Z,101273.69
2023-02-11T12:36:33.230Z,101252.94
2023-02-11T12:38:46.362Z,101273.94
2023-02-11T12:41:15.067Z,101273.78
2023-02-11T12:43:46.588Z,101281.19
2023-02-11T12:45:59.371Z,101284.47
2023-02-11T12:48:31.186Z,101294.97
2023-02-11T12:50:47.817Z,101298.25
2023-02-11T12:52:55.418Z,101308.81
2023-02-11T12:55:04.225Z,101310.63
2023-02-11T12:57:31.017Z,101313.91
2023-02-11T12:59:49.911Z,101301.03
2023-02-11T13:01:52.160Z,101313.25
2023-02-11T13:03:56.120Z,101297.59
2023-02-11T13:06:03.742Z,101306.22
2023-02-11T13:08:14.480Z,101310.81
2023-02-11T13:10:37.591Z,101320.78
2023-02-11T13:12:40.185Z,101315.41
2023-02-11T13:14:42.002Z,101314.00
2023-02-11T13:16:49.718Z,101312.06
2023-02-11T13:19:06.705Z,101296.63
2023-02-11T13:21:34.587Z,101316.16
2023-02-11T13:23:49.189Z,101314.38
2023-02-11T13:26:13.079Z,101321.16
2023-02-11T13:28:23.156Z,101321.78
2023-02-11T13:30:35.805Z,101309.97
2023-02-11T13:32:55.605Z,101319.78
2023-02-11T13:34:58.413Z,101294.69
2023-02-11T13:36:59.865Z,101322.69
2023-02-11T13:39:06.546Z,101319.47
2023-02-11T13:41:24.489Z,101324.84
2023-02-11T13:43:27.970Z,101319.69
2023-02-11T13:45:42.549Z,101315.16
2023-02-11T13:47:44.392Z,101319.00
2023-02-11T13:49:51.348Z,101323.31
2023-02-11T13:51:53.709Z,101322.63
2023-02-11T13:53:57.643Z,101327.94
2023-02-11T13:56:09.946Z,101320.41
2023-02-11T13:58:14.370Z,101333.53
2023-02-11T14:00:34.129Z,101329.03
2023-02-11T14:02:37.243Z,101329.53
2023-02-11T14:05:01.390Z,101337.59
2023-02-11T14:07:27.603Z,101336.06
2023-02-11T14:09:38.642Z,101332.06
2023-02-11T14:11:40.197Z,101330.66
2023-02-11T14:13:47.747Z,101337.31
2023-02-11T14:15:49.384Z,101340.47
2023-02-11T14:17:51.050Z,101338.13
2023-02-11T14:19:52.602Z,101337.50
2023-02-11T14:22:03.024Z,101348.94
2023-02-11T14:24:04.494Z,101342.75
2023-02-11T14:26:21.133Z,101336.38
2023-02-11T14:28:26.765Z,101345.03
2023-02-11T14:30:40.646Z,101345.38
2023-02-11T14:32:51.044Z,101359.59
2023-02-11T14:35:14.448Z,101356.38
2023-02-11T14:37:41.659Z,101358.22
2023-02-11T14:40:21.987Z,101362.06
2023-02-11T14:42:26.718Z,101350.28
2023-02-11T14:44:31.500Z,101355.75
2023-02-11T14:46:33.790Z,101356.13
2023-02-11T14:48:37.836Z,101351.91
2023-02-11T14:50:45.081Z,101363.75
2023-02-11T14:52:47.381Z,101377.03
2023-02-11T14:54:51.049Z,101360.81
2023-02-11T14:57:06.005Z,101371.97
2023-02-11T14:59:17.760Z,101371.63
2023-02-11T15:01:50.264Z,101378.75
2023-02-11T15:03:51.847Z,101391.19
2023-02-11T15:06:12.583Z,101394.84
2023-02-11T15:08:15.150Z,101388.94
2023-02-11T15:10:35.151Z,101393.56
2023-02-11T15:12:37.958Z,101399.19
2023-02-11T15:14:45.634Z,101393.81
2023-02-11T15:16:48.312Z,101406.75
2023-02-11T15:18:53.889Z,101388.75
2023-02-11T15:20:55.319Z,101408.00
2023-02-11T15:23:00.701Z,101392.91
2023-02-11T15:25:15.340Z,101408.00
2023-02-11T15:27:16.736Z,101414.94
2023-02-11T15:29:18.305Z,101409.69
2023-02-11T15:31:26.462Z,101409.69
2023-02-11T15:33:28.002Z,101416.72
2023-02-11T15:35:32.519Z,101416.53
2023-02-11T15:37:34.256Z,101406.47
2023-02-11T15:39:40.842Z,101418.34
2023-02-11T15:41:42.342Z,101436.53
2023-02-11T15:43:49.152Z,101427.78
2023-02-11T15:46:01.839Z,101440.69
2023-02-11T15:48:13.934Z,101439.16
2023-02-11T15:50:24.839Z,101436.91
2023-02-11T15:52:27.882Z,101440.56
2023-02-11T15:54:30.281Z,101438.44
2023-02-11T15:56:40.688Z,101441.81
2023-02-11T15:58:46.144Z,101440.31
2023-02-11T16:00:51.305Z,101443.41
2023-02-11T16:02:53.025Z,101457.22
2023-02-11T16:04:57.578Z,101460.31
2023-02-11T16:06:59.180Z,101460.59
2023-02-11T16:09:08.218Z,101469.91
2023-02-11T16:11:34.949Z,101464.19
2023-02-11T16:13:47.156Z,101471.69
2023-02-11T16:15:52.615Z,101480.50
2023-02-11T16:17:54.094Z,101479.09
2023-02-11T16:19:56.055Z,101483.22
2023-02-11T16:21:59.667Z,101492.41
2023-02-11T16:24:01.161Z,101483.25
2023-02-11T16:26:26.705Z,101485.78
2023-02-11T16:28:29.100Z,101475.81
2023-02-11T16:30:39.464Z,101481.44
2023-02-11T16:32:41.060Z,101477.88
2023-02-11T16:34:42.675Z,101492.16
2023-02-11T16:36:44.466Z,101490.50
2023-02-11T16:38:46.062Z,101494.06
2023-02-11T16:40:47.738Z,101487.66
2023-02-11T16:42:49.743Z,101491.81
2023-02-11T16:44:51.314Z,101499.16
2023-02-11T16:46:53.300Z,101487.13
2023-02-11T16:48:56.368Z,101495.72
2023-02-11T16:50:58.240Z,101499.84
2023-02-11T16:52:59.989Z,101501.31
2023-02-11T16:55:01.576Z,101502.47
2023-02-11T16:57:13.927Z,101502.88
2023-02-11T16:59:15.409Z,101510.81
2023-02-11T17:01:17.156Z,101515.28
2023-02-11T17:03:24.762Z,101517.38
2023-02-11T17:05:26.248Z,101523.41
2023-02-11T17:07:28.632Z,101522.75
2023-02-11T17:09:31.199Z,101532.31
2023-02-11T17:11:32.925Z,101536.47
2023-02-11T17:13:34.351Z,101539.50
2023-02-11T17:15:36.423Z,101546.53
2023-02-11T17:17:37.963Z,101541.34
2023-02-11T17:19:40.561Z,101555.41
2023-02-11T17:21:43.202Z,101560.44
2023-02-11T17:23:45.052Z,101563.06
2023-02-11T17:25:46.469Z,101557.13
2023-02-11T17:27:47.969Z,101564.38
2023-02-11T17:29:49.482Z,101572.94
2023-02-11T17:31:52.298Z,101573.53
2023-02-11T17:33:54.054Z,101578.28
2023-02-11T17:35:55.639Z,101571.69
2023-02-11T17:37:57.064Z,101583.34
2023-02-11T17:39:58.692Z,101578.03
2023-02-11T17:42:00.282Z,101583.31
2023-02-11T17:44:02.403Z,101585.66
2023-02-11T17:46:06.779Z,101590.19
2023-02-11T17:48:08.430Z,101593.22
2023-02-11T17:50:10.270Z,101595.22
2023-02-11T17:52:11.896Z,101607.34
2023-02-11T17:54:16.054Z,101596.94
2023-02-11T17:56:17.955Z,101600.84
2023-02-11T17:58:19.496Z,101601.53
2023-02-11T18:00:21.490Z,101610.84
2023-02-11T18:02:22.978Z,101613.53
2023-02-11T18:04:24.574Z,101621.78
2023-02-11T18:06:26.108Z,101628.47
2023-02-11T18:08:27.658Z,101630.41
2023-02-11T18:10:29.337Z,101627.38
2023-02-11T18:12:30.836Z,101612.69
2023-02-11T18:14:32.457Z,101639.66
2023-02-11T18:16:34.318Z,101634.84
2023-02-11T18:18:35.928Z,101633.22
2023-02-11T18:20:37.570Z,101632.88
2023-02-11T18:22:40.641Z,101637.38
2023-02-11T18:24:42.466Z,101653.31
2023-02-11T18:26:43.914Z,101647.63
2023-02-11T18:28:46.188Z,101652.97
2023-02-11T18:30:47.807Z,101662.03
2023-02-11T18:32:53.873Z,101649.69
2023-02-11T18:34:55.401Z,101636.63
2023-02-11T18:36:56.868Z,101675.44
2023-02-11T18:38:58.442Z,101683.41
2023-02-11T18:41:00.015Z,101689.81
2023-02-11T18:43:01.521Z,101683.28
2023-02-11T18:45:04.056Z,101687.31
2023-02-11T18:47:05.640Z,101694.16
2023-02-11T18:49:07.127Z,101697.88
2023-02-11T18:51:17.716Z,101700.16
2023-02-11T18:53:19.296Z,101704.84
2023-02-11T18:55:23.533Z,101701.88
2023-02-11T18:57:25.144Z,101703.81
2023-02-11T18:59:26.698Z,101705.78
2023-02-11T19:01:29.356Z,101710.59
2023-02-11T19:03:30.785Z,101711.09
2023-02-11T19:05:32.342Z,101715.59
2023-02-11T19:07:33.829Z,101721.84
2023-02-11T19:09:35.368Z,101716.59
2023-02-11T19:11:39.029Z,101717.69
2023-02-11T19:13:40.414Z,101723.81
2023-02-11T19:15:46.187Z,101728.69
2023-02-11T19:17:47.813Z,101729.38
2023-02-11T19:19:49.397Z,101735.94
2023-02-11T19:21:51.027Z,101749.69
2023-02-11T19:23:52.601Z,101735.56
2023-02-11T19:25:54.401Z,101743.88
2023-02-11T19:27:55.952Z,101751.28
2023-02-11T19:29:57.445Z,101744.72
2023-02-11T19:31:59.299Z,101749.56
2023-02-11T19:34:02.281Z,101769.81
2023-02-11T19:36:08.330Z,101764.47
2023-02-11T19:38:09.833Z,101772.00
2023-02-11T19:40:12.865Z,101782.50
2023-02-11T19:42:14.962Z,101779.72
2023-02-11T19:44:16.462Z,101788.69
2023-02-11T19:46:21.098Z,101793.75
2023-02-11T19:48:23.859Z,101744.44
2023-02-11T19:50:25.480Z,101798.81
2023-02-11T19:52:26.975Z,101794.19
2023-02-11T19:54:28.565Z,101805.53
2023-02-11T19:56:30.073Z,101806.75
2023-02-11T19:58:31.529Z,101808.91
2023-02-11T20:00:33.223Z,101816.28
2023-02-11T20:02:37.799Z,101816.81
2023-02-11T20:04:39.353Z,101817.78
2023-02-11T20:06:40.964Z,101819.91
2023-02-11T20:08:42.763Z,101820.66
2023-02-11T20:10:44.174Z,101833.13
2023-02-11T20:12:45.679Z,101830.69
2023-02-11T20:14:47.339Z,101834.50
2023-02-11T20:16:50.078Z,101839.56
2023-02-11T20:18:52.677Z,101855.66
2023-02-11T20:20:54.176Z,101841.41
2023-02-11T20:22:55.597Z,101860.84
2023-02-11T20:24:57.183Z,101863.78
2023-02-11T20:26:58.689Z,101865.63
2023-02-11T20:29:01.150Z,101879.22
2023-02-11T20:31:03.310Z,101868.84
2023-02-11T20:33:04.827Z,101880.13
2023-02-11T20:35:08.029Z,101882.31
2023-02-11T20:37:09.707Z,101842.72
2023-02-11T20:39:11.392Z,101897.91
2023-02-11T20:41:34.722Z,101907.16
2023-02-11T20:43:37.946Z,101909.16
2023-02-11T20:45:39.459Z,101921.91
2023-02-11T20:47:40.948Z,101924.78
2023-02-11T20:49:42.445Z,101935.28
2023-02-11T20:51:43.883Z,101943.88
2023-02-11T20:53:47.110Z,101947.25
2023-02-11T20:55:48.629Z,101951.38
2023-02-11T20:57:50.089Z,101948.09
2023-02-11T20:59:51.705Z,101956.91
2023-02-11T21:01:55.961Z,101968.06
2023-02-11T21:04:00.640Z,101962.47
2023-02-11T21:06:02.211Z,101953.22
2023-02-11T21:08:04.095Z,101971.06
2023-02-11T21:10:06.043Z,101972.72
2023-02-11T21:12:07.802Z,101965.50
2023-02-11T21:14:10.435Z,101979.94
2023-02-11T21:16:16.050Z,101985.66
2023-02-11T21:18:17.501Z,101988.81
2023-02-11T21:20:19.108Z,101983.34
2023-02-11T21:22:20.508Z,102002.88
2023-02-11T21:24:21.930Z,102005.44
2023-02-11T21:26:23.996Z,102018.78
2023-02-11T21:28:25.659Z,102032.28
2023-02-11T21:30:27.123Z,102030.25
2023-02-11T21:32:28.734Z,102031.97
2023-02-11T21:34:30.199Z,102036.56
2023-02-11T21:36:31.965Z,102036.91
2023-02-11T21:38:33.825Z,102045.03
2023-02-11T21:40:35.277Z,102051.50
2023-02-11T21:42:36.686Z,102040.44
2023-02-11T21:44:38.265Z,102045.69
2023-02-11T21:46:39.719Z,102062.97
2023-02-11T21:48:41.603Z,102060.22
2023-02-11T21:50:46.002Z,102068.97
2023-02-11T21:52:47.412Z,102078.78
2023-02-11T21:54:51.977Z,102078.06
2023-02-11T21:56:53.554Z,102087.41
2023-02-11T21:58:56.843Z,102096.44
2023-02-11T22:00:58.269Z,102100.28
2023-02-11T22:02:59.869Z,102111.25
2023-02-11T22:05:01.328Z,102115.44
2023-02-11T22:07:02.940Z,102127.47
2023-02-11T22:09:07.295Z,102127.50
2023-02-11T22:11:12.079Z,102120.75
2023-02-11T22:13:13.610Z,102132.00
2023-02-11T22:15:15.569Z,102136.81
2023-02-11T22:17:17.012Z,102142.72
2023-02-11T22:19:18.429Z,102134.47
2023-02-11T22:21:22.871Z,102142.84
2023-02-11T22:23:24.310Z,102146.94
2023-02-11T22:25:25.724Z,102152.22
2023-02-11T22:27:27.650Z,102153.75
2023-02-11T22:29:29.077Z,102169.34
2023-02-11T22:31:33.190Z,102173.78
2023-02-11T22:33:35.172Z,102175.63
2023-02-11T22:35:36.618Z,102178.97
2023-02-11T22:37:38.017Z,102184.63
2023-02-11T22:39:39.626Z,102190.59
2023-02-11T22:41:42.841Z,102194.63
2023-02-11T22:43:44.650Z,102211.66
2023-02-11T22:45:46.425Z,102208.78
2023-02-11T22:47:47.880Z,102213.25
2023-02-11T22:49:49.293Z,102215.78
2023-02-11T22:51:50.861Z,102212.53
2023-02-11T22:53:57.442Z,102223.28
2023-02-11T22:56:04.042Z,102223.97
2023-02-11T22:58:06.507Z,102226.63
2023-02-11T23:00:09.589Z,102222.38
2023-02-11T23:02:11.180Z,102211.84
2023-02-11T23:04:15.690Z,102235.28
2023-02-11T23:06:17.428Z,102248.47
2023-02-11T23:08:18.838Z,102256.63
2023-02-11T23:10:20.706Z,102242.63
2023-02-11T23:12:22.134Z,102253.66
2023-02-11T23:14:23.565Z,102255.59
2023-02-11T23:16:28.192Z,102266.06
2023-02-11T23:18:29.638Z,102271.63
2023-02-11T23:20:31.047Z,102261.13
2023-02-11T23:22:32.446Z,102270.34
2023-02-11T23:24:33.843Z,102267.72
2023-02-11T23:26:38.100Z,102275.97
2023-02-11T23:28:39.788Z,102276.81
2023-02-11T23:30:41.289Z,102287.66
2023-02-11T23:32:42.690Z,102298.22
2023-02-11T23:34:44.192Z,102291.63
2023-02-11T23:36:45.617Z,102276.09
2023-02-11T23:38:47.799Z,102288.59
2023-02-11T23:40:49.307Z,102290.31
2023-02-11T23:42:50.706Z,102287.06
2023-02-11T23:44:52.132Z,102284.88
2023-02-11T23:46:53.809Z,102285.03
2023-02-11T23:48:55.703Z,102292.84
2023-02-11T23:50:57.248Z,102292.97
2023-02-11T23:52:58.924Z,102297.91
2023-02-11T23:55:00.331Z,102297.50
2023-02-11T23:57:01.744Z,102306.50